createdAt,value
2018-05-31T00:01:32.530Z,12.80
2018-05-31T00:04:06.133Z,11.27
2018-05-31T00:06:40.436Z,10.47
2018-05-31T00:09:14.447Z,9.63
2018-05-31T00:11:48.807Z,10.90
2018-05-31T00:14:23.385Z,11.20
2018-05-31T00:16:57.675Z,10.97
2018-05-31T00:19:32.536Z,12.10
2018-05-31T00:22:07.102Z,11.70
2018-05-31T00:24:40.751Z,9.40
2018-05-31T00:27:14.770Z,10.80
2018-05-31T00:29:48.886Z,11.00
2018-05-31T00:32:24.088Z,10.70
2018-05-31T00:34:59.470Z,9.33
2018-05-31T00:37:33.254Z,11.77
2018-05-31T00:40:07.160Z,10.07
2018-05-31T00:42:42.212Z,9.83
2018-05-31T00:45:16.378Z,10.43
2018-05-31T00:47:51.113Z,10.40
2018-05-31T00:50:24.832Z,10.03
2018-05-31T00:52:58.727Z,13.37
2018-05-31T00:55:45.202Z,13.07
2018-05-31T00:58:19.921Z,14.33
2018-05-31T01:00:53.781Z,12.10
2018-05-31T01:03:28.316Z,11.47
2018-05-31T01:06:02.522Z,15.70
2018-05-31T01:08:36.120Z,14.67
2018-05-31T01:11:11.294Z,13.67
2018-05-31T01:13:45.047Z,15.23
2018-05-31T01:16:21.316Z,14.20
2018-05-31T01:18:54.929Z,12.50
2018-05-31T01:21:29.553Z,12.43
2018-05-31T01:24:03.851Z,12.27
2018-05-31T01:26:38.485Z,14.50
2018-05-31T01:29:13.539Z,14.80
2018-05-31T01:31:48.478Z,12.53
2018-05-31T01:34:23.477Z,12.17
2018-05-31T01:36:58.818Z,13.20
2018-05-31T01:39:34.013Z,13.40
2018-05-31T01:42:09.631Z,14.77
2018-05-31T01:44:44.060Z,14.93
2018-05-31T01:47:18.951Z,17.40
2018-05-31T01:49:53.578Z,17.43
2018-05-31T01:52:27.787Z,19.00
2018-05-31T01:55:03.541Z,15.53
2018-05-31T01:57:40.926Z,17.87
2018-05-31T02:00:15.239Z,16.70
2018-05-31T02:02:49.656Z,15.53
2018-05-31T02:05:24.086Z,14.67
2018-05-31T02:07:58.217Z,12.80
2018-05-31T02:10:32.295Z,14.33
2018-05-31T02:13:07.553Z,17.57
2018-05-31T02:15:42.215Z,16.63
2018-05-31T02:18:17.195Z,12.20
2018-05-31T02:20:51.549Z,13.63
2018-05-31T02:23:26.049Z,14.77
2018-05-31T02:26:02.211Z,12.53
2018-05-31T02:28:37.326Z,13.87
2018-05-31T02:31:14.106Z,13.00
2018-05-31T02:33:50.887Z,12.27
2018-05-31T02:36:26.966Z,16.13
2018-05-31T02:39:01.963Z,12.83
2018-05-31T02:41:36.892Z,13.17
2018-05-31T02:44:10.730Z,12.13
2018-05-31T02:46:45.231Z,14.80
2018-05-31T02:49:19.863Z,14.60
2018-05-31T02:51:55.804Z,10.93
2018-05-31T02:54:33.390Z,11.57
2018-05-31T02:57:08.123Z,9.93
2018-05-31T02:59:43.376Z,10.70
2018-05-31T03:02:17.679Z,12.93
2018-05-31T03:04:52.701Z,14.07
2018-05-31T03:07:27.434Z,9.83
2018-05-31T03:10:01.541Z,11.00
2018-05-31T03:12:35.327Z,12.63
2018-05-31T03:15:10.483Z,11.93
2018-05-31T03:17:44.559Z,10.77
2018-05-31T03:20:18.301Z,13.50
2018-05-31T03:22:51.971Z,10.43
2018-05-31T03:25:26.024Z,11.33
2018-05-31T03:28:00.632Z,16.63
2018-05-31T03:30:39.668Z,12.70
2018-05-31T03:33:15.717Z,11.07
2018-05-31T03:35:49.570Z,10.67
2018-05-31T03:38:24.046Z,13.27
2018-05-31T03:40:59.897Z,13.43
2018-05-31T03:43:33.900Z,12.20
2018-05-31T03:46:08.929Z,14.73
2018-05-31T03:48:42.632Z,9.87
2018-05-31T03:51:18.491Z,11.90
2018-05-31T03:53:52.708Z,13.87
2018-05-31T03:56:27.446Z,11.27
2018-05-31T03:59:01.548Z,12.90
2018-05-31T04:01:36.246Z,11.60
2018-05-31T04:04:10.174Z,9.93
2018-05-31T04:06:44.178Z,10.90
2018-05-31T04:09:19.258Z,12.90
2018-05-31T04:11:54.243Z,9.83
2018-05-31T04:14:28.579Z,9.87
2018-05-31T04:17:02.542Z,10.23
2018-05-31T04:19:37.807Z,9.93
2018-05-31T04:22:12.015Z,14.97
2018-05-31T04:24:46.851Z,9.20
2018-05-31T04:27:20.551Z,15.30
2018-05-31T04:29:55.898Z,13.20
2018-05-31T04:32:30.841Z,13.50
2018-05-31T04:35:05.879Z,14.63
2018-05-31T04:37:40.791Z,8.27
2018-05-31T04:40:16.454Z,9.17
2018-05-31T04:42:51.168Z,12.10
2018-05-31T04:45:26.724Z,13.07
2018-05-31T04:48:00.635Z,10.77
2018-05-31T04:50:35.452Z,13.03
2018-05-31T04:53:09.845Z,15.20
2018-05-31T04:55:44.695Z,15.73
2018-05-31T04:58:18.601Z,13.30
2018-05-31T05:00:52.401Z,17.77
2018-05-31T05:03:27.651Z,14.80
2018-05-31T05:06:01.662Z,14.83
2018-05-31T05:08:36.382Z,17.57
2018-05-31T05:11:10.331Z,15.83
2018-05-31T05:13:45.202Z,15.87
2018-05-31T05:16:19.941Z,14.77
2018-05-31T05:18:54.863Z,14.33
2018-05-31T05:21:28.804Z,14.83
2018-05-31T05:24:02.685Z,15.07
2018-05-31T05:26:37.169Z,14.30
2018-05-31T05:29:10.813Z,14.43
2018-05-31T05:31:46.455Z,14.37
2018-05-31T05:34:21.168Z,14.63
2018-05-31T05:36:57.846Z,16.57
2018-05-31T05:39:31.646Z,16.13
2018-05-31T05:42:07.145Z,13.93
2018-05-31T05:44:40.803Z,13.50
2018-05-31T05:47:15.185Z,13.30
2018-05-31T05:49:48.894Z,15.63
2018-05-31T05:52:22.829Z,13.17
2018-05-31T05:54:57.786Z,16.00
2018-05-31T05:57:32.056Z,14.83
2018-05-31T06:00:05.727Z,13.70
2018-05-31T06:02:40.298Z,16.30
2018-05-31T06:05:16.782Z,13.43
2018-05-31T06:07:51.317Z,13.10
2018-05-31T06:10:25.308Z,11.37
2018-05-31T06:12:59.605Z,10.50
2018-05-31T06:15:34.258Z,11.43
2018-05-31T06:18:09.077Z,12.93
2018-05-31T06:20:42.877Z,13.00
2018-05-31T06:23:18.814Z,10.97
2018-05-31T06:25:54.367Z,14.43
2018-05-31T06:28:28.098Z,9.57
2018-05-31T06:31:02.916Z,7.90
2018-05-31T06:33:37.147Z,9.87
2018-05-31T06:36:11.120Z,8.53
2018-05-31T06:38:46.876Z,9.20
2018-05-31T06:41:20.620Z,8.73
2018-05-31T06:43:55.537Z,8.90
2018-05-31T06:46:30.119Z,11.77
2018-05-31T06:49:03.933Z,11.67
2018-05-31T06:51:37.726Z,11.23
2018-05-31T06:54:12.695Z,8.70
2018-05-31T06:56:46.358Z,9.27
2018-05-31T06:59:20.000Z,7.60
2018-05-31T07:01:54.594Z,7.87
2018-05-31T07:04:28.498Z,7.50
2018-05-31T07:07:04.469Z,7.30
2018-05-31T07:09:38.779Z,10.23
2018-05-31T07:12:12.866Z,8.53
2018-05-31T07:14:48.110Z,7.27
2018-05-31T07:17:25.390Z,7.63
2018-05-31T07:19:59.019Z,7.63
2018-05-31T07:22:33.726Z,8.27
2018-05-31T07:25:07.924Z,7.83
2018-05-31T07:27:41.861Z,9.30
2018-05-31T07:30:16.304Z,12.93
2018-05-31T07:32:50.882Z,7.63
2018-05-31T07:35:25.924Z,7.93
2018-05-31T07:38:00.030Z,8.37
2018-05-31T07:40:34.425Z,6.83
2018-05-31T07:43:09.296Z,10.27
2018-05-31T07:45:43.534Z,9.73
2018-05-31T07:48:18.315Z,12.70
2018-05-31T07:50:52.849Z,10.53
2018-05-31T07:53:28.587Z,7.90
2018-05-31T07:56:06.597Z,7.27
2018-05-31T07:58:40.514Z,7.50
2018-05-31T08:01:14.519Z,9.00
2018-05-31T08:03:48.426Z,8.47
2018-05-31T08:06:25.059Z,9.33
2018-05-31T08:08:59.727Z,8.00
2018-05-31T08:11:33.575Z,9.53
2018-05-31T08:14:08.755Z,7.47
2018-05-31T08:16:43.897Z,9.47
2018-05-31T08:19:17.496Z,6.87
2018-05-31T08:21:53.437Z,7.17
2018-05-31T08:24:28.828Z,8.47
2018-05-31T08:27:03.205Z,7.57
2018-05-31T08:29:37.833Z,6.77
2018-05-31T08:32:11.786Z,7.37
2018-05-31T08:34:46.062Z,6.57
2018-05-31T08:37:19.869Z,6.57
2018-05-31T08:39:55.614Z,9.40
2018-05-31T08:42:29.403Z,7.07
2018-05-31T08:45:04.236Z,6.23
2018-05-31T08:47:39.057Z,6.97
2018-05-31T08:50:13.485Z,6.73
2018-05-31T08:52:47.955Z,5.67
2018-05-31T08:55:22.340Z,5.53
2018-05-31T08:57:57.360Z,5.50
2018-05-31T09:00:31.359Z,6.40
2018-05-31T09:03:05.507Z,4.33
2018-05-31T09:05:39.990Z,6.97
2018-05-31T09:08:16.580Z,5.53
2018-05-31T09:10:52.056Z,8.17
2018-05-31T09:13:26.831Z,5.70
2018-05-31T09:16:00.646Z,7.40
2018-05-31T09:18:34.866Z,5.60
2018-05-31T09:21:08.862Z,6.03
2018-05-31T09:23:44.928Z,5.53
2018-05-31T09:26:19.543Z,5.77
2018-05-31T09:28:55.240Z,7.00
2018-05-31T09:31:30.123Z,4.70
2018-05-31T09:34:05.714Z,4.23
2018-05-31T09:36:40.388Z,4.67
2018-05-31T09:39:15.290Z,3.97
2018-05-31T09:41:49.322Z,4.83
2018-05-31T09:44:24.273Z,3.47
2018-05-31T09:46:59.007Z,3.90
2018-05-31T09:49:34.020Z,5.80
2018-05-31T09:52:09.360Z,5.00
2018-05-31T09:54:43.997Z,4.83
2018-05-31T09:57:17.990Z,4.37
2018-05-31T09:59:52.518Z,6.20
2018-05-31T10:02:27.344Z,4.23
2018-05-31T10:05:01.069Z,5.33
2018-05-31T10:07:34.815Z,5.93
2018-05-31T10:10:10.002Z,4.40
2018-05-31T10:12:44.270Z,4.60
2018-05-31T10:15:18.649Z,5.23
2018-05-31T10:31:04.230Z,6.87
2018-05-31T10:33:37.983Z,6.23
2018-05-31T10:36:11.696Z,5.60
2018-05-31T10:38:47.017Z,4.80
2018-05-31T10:41:20.830Z,3.80
2018-05-31T10:43:55.372Z,6.47
2018-05-31T10:46:30.011Z,4.47
2018-05-31T10:49:04.571Z,6.77
2018-05-31T10:51:40.038Z,5.47
2018-05-31T10:54:13.952Z,4.00
2018-05-31T10:56:48.486Z,4.90
2018-05-31T10:59:22.992Z,6.53
2018-05-31T11:01:57.296Z,7.50
2018-05-31T11:04:30.987Z,5.63
2018-05-31T11:07:05.042Z,4.50
2018-05-31T11:09:39.641Z,6.70
2018-05-31T11:12:14.738Z,6.43
2018-05-31T11:14:48.208Z,5.47
2018-05-31T11:17:21.891Z,6.60
2018-05-31T11:19:55.883Z,4.20
2018-05-31T11:22:29.680Z,6.47
2018-05-31T11:25:04.210Z,4.23
2018-05-31T11:27:38.827Z,5.57
2018-05-31T11:30:12.833Z,6.23
2018-05-31T11:32:47.571Z,3.93
2018-05-31T11:35:21.101Z,9.53
2018-05-31T11:37:55.498Z,6.40
2018-05-31T11:40:29.608Z,6.13
2018-05-31T11:43:03.559Z,5.07
2018-05-31T11:45:37.061Z,5.60
2018-05-31T11:48:11.509Z,8.07
2018-05-31T11:50:45.324Z,5.00
2018-05-31T11:53:19.231Z,6.33
2018-05-31T11:55:53.097Z,6.60
2018-05-31T11:58:27.120Z,4.77
2018-05-31T12:01:00.810Z,5.70
2018-05-31T12:03:35.109Z,5.80
2018-05-31T12:06:08.764Z,5.50
2018-05-31T12:08:42.764Z,8.03
2018-05-31T12:11:17.271Z,6.33
2018-05-31T12:13:51.092Z,4.47
2018-05-31T12:16:26.035Z,4.80
2018-05-31T12:19:00.565Z,6.20
2018-05-31T12:21:35.059Z,5.20
2018-05-31T12:24:09.576Z,4.63
2018-05-31T12:26:44.330Z,6.67
2018-05-31T12:29:18.635Z,8.70
2018-05-31T12:31:53.706Z,8.10
2018-05-31T12:34:28.597Z,5.13
2018-05-31T12:37:03.106Z,9.00
2018-05-31T12:39:37.831Z,4.90
2018-05-31T12:42:11.775Z,4.53
2018-05-31T12:44:45.963Z,5.33
2018-05-31T12:47:20.472Z,5.03
2018-05-31T12:49:54.351Z,7.27
2018-05-31T12:52:28.784Z,6.90
2018-05-31T12:55:03.427Z,6.90
2018-05-31T12:57:37.971Z,6.47
2018-05-31T13:00:11.958Z,7.77
2018-05-31T13:02:46.234Z,5.17
2018-05-31T13:05:20.165Z,5.80
2018-05-31T13:07:54.312Z,6.70
2018-05-31T13:10:28.885Z,5.03
2018-05-31T13:13:03.429Z,4.70
2018-05-31T13:15:38.226Z,7.07
2018-05-31T13:18:11.965Z,5.93
2018-05-31T13:20:46.601Z,6.40
2018-05-31T13:23:20.507Z,7.57
2018-05-31T13:25:54.539Z,6.57
2018-05-31T13:28:28.437Z,6.97
2018-05-31T13:31:02.409Z,5.27
2018-05-31T13:33:36.232Z,9.63
2018-05-31T13:36:09.935Z,5.90
2018-05-31T13:38:45.583Z,4.70
2018-05-31T13:41:19.473Z,7.97
2018-05-31T13:43:53.297Z,7.70
2018-05-31T13:46:27.520Z,6.63
2018-05-31T13:49:01.307Z,7.40
2018-05-31T13:51:35.379Z,7.03
2018-05-31T13:54:08.923Z,5.40
2018-05-31T13:56:43.434Z,7.20
2018-05-31T13:59:17.272Z,7.17
2018-05-31T14:01:50.946Z,6.60
2018-05-31T14:04:24.871Z,9.47
2018-05-31T14:06:58.948Z,7.37
2018-05-31T14:09:33.486Z,6.33
2018-05-31T14:12:07.481Z,6.30
2018-05-31T14:14:41.084Z,6.13
2018-05-31T14:17:15.001Z,4.77
2018-05-31T14:19:49.204Z,9.07
2018-05-31T14:22:22.909Z,8.20
2018-05-31T14:24:56.535Z,5.77
2018-05-31T14:27:30.162Z,5.13
2018-05-31T14:30:04.758Z,4.50
2018-05-31T14:32:38.739Z,4.50
2018-05-31T14:35:13.876Z,4.43
2018-05-31T14:37:48.604Z,5.57
2018-05-31T14:40:23.035Z,4.33
2018-05-31T14:42:56.802Z,4.90
2018-05-31T14:45:31.177Z,5.90
2018-05-31T14:48:04.965Z,5.03
2018-05-31T14:50:39.590Z,4.47
2018-05-31T14:53:14.763Z,5.67
2018-05-31T14:55:48.727Z,8.10
2018-05-31T14:58:23.977Z,4.60
2018-05-31T15:00:57.469Z,4.97
2018-05-31T15:03:31.680Z,7.27
2018-05-31T15:06:05.667Z,5.83
2018-05-31T15:08:39.686Z,5.30
2018-05-31T15:11:14.887Z,4.73
2018-05-31T15:13:49.021Z,4.50
2018-05-31T15:16:23.035Z,4.97
2018-05-31T15:18:57.146Z,5.23
2018-05-31T15:21:30.922Z,5.07
2018-05-31T15:24:04.633Z,6.73
2018-05-31T15:26:38.477Z,5.77
2018-05-31T15:29:12.369Z,5.40
2018-05-31T15:31:47.867Z,4.40
2018-05-31T15:34:21.759Z,5.73
2018-05-31T15:36:55.757Z,4.87
2018-05-31T15:39:29.443Z,6.83
2018-05-31T15:42:03.906Z,6.87
2018-05-31T15:44:37.553Z,5.70
2018-05-31T15:47:11.156Z,4.83
2018-05-31T15:49:45.153Z,6.47
2018-05-31T15:52:18.858Z,6.80
2018-05-31T15:54:52.511Z,5.00
2018-05-31T15:57:27.302Z,6.03
2018-05-31T16:00:01.702Z,7.77
2018-05-31T16:02:36.675Z,5.23
2018-05-31T16:05:10.357Z,4.77
2018-05-31T16:07:47.050Z,4.60
2018-05-31T16:10:20.922Z,7.80
2018-05-31T16:12:55.121Z,5.30
2018-05-31T16:15:28.993Z,7.00
2018-05-31T16:18:03.660Z,8.87
2018-05-31T16:20:37.772Z,5.10
2018-05-31T16:23:11.782Z,6.53
2018-05-31T16:25:45.486Z,5.60
2018-05-31T16:28:19.901Z,8.67
2018-05-31T16:30:53.911Z,5.97
2018-05-31T16:33:27.920Z,8.30
2018-05-31T16:36:02.946Z,6.77
2018-05-31T16:38:37.058Z,7.83
2018-05-31T16:41:10.985Z,7.10
2018-05-31T16:43:45.072Z,5.93
2018-05-31T16:46:18.562Z,7.43
2018-05-31T16:48:52.977Z,6.30
2018-05-31T16:51:27.431Z,5.33
2018-05-31T16:54:01.336Z,6.80
2018-05-31T16:56:35.758Z,5.83
2018-05-31T16:59:11.080Z,4.93
2018-05-31T17:01:45.111Z,10.00
2018-05-31T17:04:18.707Z,6.90
2018-05-31T17:06:52.715Z,4.80
2018-05-31T17:09:28.447Z,8.27
2018-05-31T17:12:02.260Z,5.30
2018-05-31T17:14:36.772Z,6.70
2018-05-31T17:17:10.798Z,6.93
2018-05-31T17:19:44.979Z,6.10
2018-05-31T17:22:19.411Z,5.40
2018-05-31T17:24:54.594Z,8.13
2018-05-31T17:27:28.438Z,7.23
2018-05-31T17:30:02.877Z,7.40
2018-05-31T17:32:37.194Z,7.13
2018-05-31T17:35:10.883Z,6.30
2018-05-31T17:37:45.047Z,5.97
2018-05-31T17:40:19.717Z,5.63
2018-05-31T17:42:53.485Z,5.87
2018-05-31T17:45:27.621Z,6.53
2018-05-31T17:48:02.061Z,6.73
2018-05-31T17:50:36.834Z,6.00
2018-05-31T17:53:10.571Z,5.37
2018-05-31T17:55:45.721Z,4.67
2018-05-31T17:58:19.561Z,4.60
2018-05-31T18:00:54.143Z,6.37
2018-05-31T18:03:28.588Z,6.93
2018-05-31T18:06:02.588Z,5.03
2018-05-31T18:08:36.223Z,5.33
2018-05-31T18:11:10.219Z,6.70
2018-05-31T18:13:45.442Z,5.20
2018-05-31T18:16:19.942Z,7.67
2018-05-31T18:18:55.003Z,6.73
2018-05-31T18:21:28.902Z,13.07
2018-05-31T18:24:03.845Z,8.90
2018-05-31T18:26:38.771Z,11.13
2018-05-31T18:29:13.153Z,7.93
2018-05-31T18:31:48.120Z,8.30
2018-05-31T18:34:22.202Z,6.10
2018-05-31T18:36:56.935Z,11.07
2018-05-31T18:39:31.461Z,8.63
2018-05-31T18:42:05.582Z,7.50
2018-05-31T18:44:39.588Z,5.50
2018-05-31T18:47:13.389Z,10.23
2018-05-31T18:49:48.178Z,6.83
2018-05-31T18:52:21.860Z,6.20
2018-05-31T18:54:55.723Z,10.53
2018-05-31T18:57:30.244Z,7.80
2018-05-31T19:00:05.138Z,5.93
2018-05-31T19:02:39.810Z,5.77
2018-05-31T19:05:14.681Z,7.87
2018-05-31T19:07:49.139Z,7.70
2018-05-31T19:10:22.757Z,6.87
2018-05-31T19:13:02.165Z,6.03
2018-05-31T19:15:36.167Z,5.70
2018-05-31T19:18:16.297Z,5.93
2018-05-31T19:20:50.072Z,6.70
2018-05-31T19:23:23.877Z,5.70
2018-05-31T19:25:58.463Z,5.57
2018-05-31T19:28:32.174Z,7.20
2018-05-31T19:31:11.966Z,8.13
2018-05-31T19:33:49.057Z,5.40
2018-05-31T19:36:33.371Z,5.87
2018-05-31T19:39:07.496Z,5.97
2018-05-31T19:41:41.147Z,10.10
2018-05-31T19:44:21.454Z,5.57
2018-05-31T19:46:56.137Z,5.73
2018-05-31T19:49:30.005Z,5.03
2018-05-31T19:52:09.607Z,5.83
2018-05-31T19:54:43.688Z,5.93
2018-05-31T19:57:17.836Z,5.83
2018-05-31T19:59:57.968Z,5.93
2018-05-31T20:02:38.279Z,5.77
2018-05-31T20:05:12.952Z,5.73
2018-05-31T20:07:47.470Z,6.10
2018-05-31T20:10:21.072Z,7.53
2018-05-31T20:12:54.954Z,8.70
2018-05-31T20:15:29.615Z,7.07
2018-05-31T20:18:03.531Z,8.40
2018-05-31T20:20:38.364Z,8.97
2018-05-31T20:23:12.204Z,9.00
2018-05-31T20:25:45.940Z,8.27
2018-05-31T20:28:31.131Z,7.23
2018-05-31T20:31:05.974Z,7.50
2018-05-31T20:33:40.283Z,6.20
2018-05-31T20:36:14.065Z,6.00
2018-05-31T20:38:48.870Z,6.30
2018-05-31T20:41:23.446Z,7.20
2018-05-31T20:43:58.237Z,7.10
2018-05-31T20:46:32.836Z,8.73
2018-05-31T20:49:07.510Z,7.13
2018-05-31T20:51:41.195Z,7.67
2018-05-31T20:54:16.496Z,6.50
2018-05-31T20:56:49.945Z,6.20
2018-05-31T20:59:24.036Z,9.30
2018-05-31T21:01:58.312Z,9.83
2018-05-31T21:04:32.789Z,6.50
2018-05-31T21:07:07.189Z,7.17
2018-05-31T21:09:40.931Z,6.93
2018-05-31T21:12:20.284Z,6.83
2018-05-31T21:14:55.153Z,6.80
2018-05-31T21:17:29.505Z,7.10
2018-05-31T21:20:04.015Z,7.50
2018-05-31T21:22:38.302Z,7.33
2018-05-31T21:25:12.052Z,7.00
2018-05-31T21:27:47.188Z,7.03
2018-05-31T21:30:20.977Z,8.20
2018-05-31T21:32:56.921Z,7.63
2018-05-31T21:35:31.082Z,8.33
2018-05-31T21:38:05.747Z,9.97
2018-05-31T21:40:40.062Z,8.17
2018-05-31T21:43:13.833Z,20.57
2018-05-31T21:45:48.982Z,8.47
2018-05-31T21:48:22.724Z,8.13
2018-05-31T21:50:57.811Z,8.77
2018-05-31T21:53:31.542Z,10.03
2018-05-31T21:56:06.380Z,10.73
2018-05-31T21:58:39.960Z,9.80
2018-05-31T22:01:15.403Z,10.23
2018-05-31T22:03:50.041Z,8.53
2018-05-31T22:06:24.015Z,9.83
2018-05-31T22:08:57.539Z,3.13
2018-05-31T22:11:32.101Z,2.80
2018-05-31T22:14:06.347Z,2.93
2018-05-31T22:16:40.028Z,2.03
2018-05-31T22:19:14.848Z,3.00
2018-05-31T22:21:48.704Z,4.20
2018-05-31T22:24:23.890Z,2.93
2018-05-31T22:26:58.571Z,1.60
2018-05-31T22:29:32.987Z,31.93
2018-05-31T22:32:07.350Z,17.83
2018-05-31T22:34:41.128Z,13.40
2018-05-31T22:37:17.651Z,6.80
2018-05-31T22:39:51.978Z,16.37
2018-05-31T22:42:26.616Z,4.40
2018-05-31T22:45:00.965Z,3.13
2018-05-31T22:47:35.508Z,5.03
2018-05-31T22:50:09.264Z,3.90
2018-05-31T22:52:44.604Z,4.90
2018-05-31T22:55:18.933Z,3.97
2018-05-31T22:57:53.793Z,1.80
2018-05-31T23:00:27.569Z,5.57
2018-05-31T23:03:01.295Z,1.97
2018-05-31T23:05:35.883Z,2.53
2018-05-31T23:08:10.601Z,2.60
2018-05-31T23:10:48.115Z,2.50
2018-05-31T23:13:22.925Z,8.27
2018-05-31T23:15:56.939Z,4.63
2018-05-31T23:18:30.630Z,1.83
2018-05-31T23:21:04.485Z,4.30
2018-05-31T23:23:38.163Z,2.10
2018-05-31T23:26:13.003Z,2.13
2018-05-31T23:28:48.219Z,1.90
2018-05-31T23:31:22.031Z,6.43
2018-05-31T23:33:58.170Z,25.77
2018-05-31T23:36:32.825Z,47.50
2018-05-31T23:39:07.243Z,63.70
2018-05-31T23:41:41.761Z,3.20
2018-05-31T23:44:16.995Z,11.20
2018-05-31T23:46:51.811Z,8.53
2018-05-31T23:49:25.802Z,3.10
2018-05-31T23:51:59.926Z,8.57
2018-05-31T23:54:34.640Z,15.63
2018-05-31T23:57:08.470Z,2.43
2018-05-31T23:59:43.819Z,6.13
